Hlavní strana
METAR-TAF:

METAR-TAF

Letiště :

Letiště Drážďany

Drážďany, Německo

zeměpisná šířka: 51-08N, zeměpisná délka: 013-45E, výška: 230 m

Aktuální stav počasí

Zpráva byla vytvořena před 24 minutami, v 10:20 UTC
Jihojihovýchodní vítr 14 kt
Teplota 18°C
Vlhkost vzduchu 30%
Tlak 1016 hPa
Viditelnost 10 km a více
Žádná oblačnost pod 1500 m, nevyskytují se cumulonimby.

METAR: EDDC 151020Z 16014KT CAVOK 18/00 Q1016 TEMPO 16015G25KT

Čas: 12:44 (10:44 UTC)

Předpověď počasí

Zpráva byla vytvořena před 3 hodinami a 19 minutami, v 07:25 UTC
Předpověď platná od 15 v 07 UTC do 16 v 06 UTC
Jihojihovýchodní vítr 12 kt s nárazy do 22 kt
Viditelnost 10 km a více
Žádná oblačnost pod 1500 m, nevyskytují se cumulonimby.
Dočasný
od 15 v 07 UTC do 15 v 13 UTC
Jihojihovýchodní vítr 20 kt s nárazy do 30 kt
Změna
od 15 v 15 UTC do 15 v 18 UTC
Jihojihovýchodní vítr 7 kt

TAF: EDDC 150725Z 1507/1606 15012G22KT CAVOK TEMPO 1507/1513 15020G30KT BECMG 1515/1518 15007KT

Stav a předpovědi počasí z více než 4 000 letišť (zprávy METAR a TAF).

Červené a žluté tečky na mapě představují dostupné meteorologické stanice.

Když kurzor umístíte na tečku, zobrazí se název stanice.

Pak kliknutím zobrazíte stav a předpověď počasí.

Chcete-li změnit mapu, kliknutím na zelené tlačítko se znaménkem +mapu přiblížíte, kliknutím na zelené tlačítko se znaménkem – mapu oddálíte a kliknutím na zelené šipky přejdete na sousední mapy.


METAR-TAF: